Time;durP1;ratioP1;P1;durP2;ratioP2;P2;SDS_P1;SDS_P2;PMS_P1;PMS_P2;Temp;Humidity;BMP_temperature;BMP_pressure;BME280_temperature;BME280_humidity;BME280_pressure;Samples;Min_cycle;Max_cycle;Signal;HPM_P1;HPM_P2
2024/03/28 00:00:48;;;;;;;1999.90;999.90;;;9.70;99.90;;;;;;5033143;28;20041;-67
2024/03/28 00:03:13;;;;;;;1999.90;999.90;;;9.70;99.90;;;;;;5032791;28;20500;-67
2024/03/28 00:05:39;;;;;;;1999.90;999.90;;;9.60;99.90;;;;;;5032687;28;20025;-67
2024/03/28 00:08:05;;;;;;;1999.90;999.90;;;9.40;99.90;;;;;;5032899;28;20443;-73
2024/03/28 00:10:31;;;;;;;1999.90;999.90;;;9.20;99.90;;;;;;5032879;28;20522;-74
2024/03/28 00:12:56;;;;;;;1999.90;999.90;;;9.00;99.90;;;;;;5032913;28;20025;-67
2024/03/28 00:15:22;;;;;;;1999.90;999.90;;;9.00;99.90;;;;;;5032895;28;20033;-67
2024/03/28 00:17:48;;;;;;;1999.90;999.90;;;9.10;99.90;;;;;;5032506;28;20115;-67
2024/03/28 00:20:13;;;;;;;1999.90;999.90;;;9.20;99.90;;;;;;5032825;28;20037;-73
2024/03/28 00:22:39;;;;;;;1999.90;999.90;;;9.30;99.90;;;;;;5031400;28;20100;-67
2024/03/28 00:25:05;;;;;;;1999.90;999.90;;;9.30;99.90;;;;;;5032539;28;20037;-67
2024/03/28 00:27:31;;;;;;;1999.90;999.90;;;8.80;99.90;;;;;;5032415;28;20109;-67
2024/03/28 00:29:57;;;;;;;1999.90;999.90;;;8.70;99.90;;;;;;5032433;28;20108;-67
2024/03/28 00:32:22;;;;;;;1999.90;999.90;;;8.80;99.90;;;;;;5032390;28;20052;-67
2024/03/28 00:34:49;;;;;;;1999.90;999.90;;;8.90;99.90;;;;;;5032950;28;20454;-67
2024/03/28 00:37:14;;;;;;;1999.90;999.90;;;8.90;99.90;;;;;;5031599;28;20511;-68
2024/03/28 00:39:40;;;;;;;1999.90;999.90;;;8.80;99.90;;;;;;5032357;28;20057;-67
2024/03/28 00:42:06;;;;;;;1999.90;999.90;;;8.80;99.90;;;;;;5032480;28;20104;-67
2024/03/28 00:44:31;;;;;;;1999.90;999.90;;;8.70;99.90;;;;;;5032183;28;20191;-68
2024/03/28 00:46:57;;;;;;;1999.90;999.90;;;8.70;99.90;;;;;;5034828;28;20022;-67
2024/03/28 00:49:22;;;;;;;1999.90;999.90;;;8.70;99.90;;;;;;5036484;28;20025;-67
2024/03/28 00:51:48;;;;;;;1999.90;999.90;;;8.60;99.90;;;;;;5036635;28;20507;-67
2024/03/28 00:54:14;;;;;;;1999.90;999.90;;;8.60;99.90;;;;;;5035576;28;20087;-67
2024/03/28 00:56:39;;;;;;;1999.90;999.90;;;8.60;99.90;;;;;;5036179;28;20040;-67
2024/03/28 00:59:05;;;;;;;1999.90;999.90;;;8.70;99.90;;;;;;5036252;28;20030;-68
2024/03/28 01:01:31;;;;;;;1999.90;999.90;;;8.70;99.90;;;;;;5036343;28;20034;-67
2024/03/28 01:03:56;;;;;;;1999.90;999.90;;;8.90;99.90;;;;;;5035991;28;20499;-68
2024/03/28 01:06:22;;;;;;;1999.90;999.90;;;8.90;99.90;;;;;;5036024;28;20056;-68
2024/03/28 01:08:47;;;;;;;1999.90;999.90;;;9.00;99.90;;;;;;5036218;28;20068;-67
2024/03/28 01:11:13;;;;;;;1999.90;999.90;;;9.00;99.90;;;;;;5036356;28;20096;-67
2024/03/28 01:13:40;;;;;;;;;;;9.00;99.90;;;;;;5036241;28;20026;-67
2024/03/28 01:16:06;;;;;;;1999.90;999.90;;;8.70;99.90;;;;;;5035947;28;19984;-67
2024/03/28 01:18:32;;;;;;;1999.90;999.90;;;8.10;99.90;;;;;;5035524;28;20053;-67
2024/03/28 01:21:03;;;;;;;1999.90;999.90;;;7.70;99.90;;;;;;5035965;28;20030;-67
2024/03/28 01:23:30;;;;;;;1999.90;999.90;;;7.60;99.90;;;;;;5035648;28;20116;-67
2024/03/28 01:25:56;;;;;;;1999.90;999.90;;;7.50;99.90;;;;;;5036007;28;20464;-67
2024/03/28 01:28:22;;;;;;;1999.90;999.90;;;7.50;99.90;;;;;;5035818;28;20029;-67
2024/03/28 01:30:48;;;;;;;1999.90;999.90;;;7.50;99.90;;;;;;5035623;28;20025;-67
2024/03/28 01:33:13;;;;;;;1999.90;999.90;;;7.60;99.90;;;;;;5035561;28;20440;-67
2024/03/28 01:35:39;;;;;;;1999.90;999.90;;;7.70;99.90;;;;;;5035614;28;20045;-67
2024/03/28 01:38:04;;;;;;;1999.90;999.90;;;7.80;99.90;;;;;;5034811;28;20025;-66
2024/03/28 01:40:30;;;;;;;1999.90;999.90;;;8.10;99.90;;;;;;5035313;28;20030;-71
2024/03/28 01:43:05;;;;;;;1999.90;999.90;;;8.10;99.90;;;;;;5035360;28;20156;-67
2024/03/28 01:45:30;;;;;;;1999.90;999.90;;;8.10;99.90;;;;;;5035309;28;20388;-67
2024/03/28 01:47:56;;;;;;;1999.90;999.90;;;8.10;99.90;;;;;;5035399;28;20018;-66
2024/03/28 01:50:22;;;;;;;1999.90;999.90;;;8.30;99.90;;;;;;5035455;28;20017;-67
2024/03/28 01:52:48;;;;;;;1999.90;999.90;;;8.40;99.90;;;;;;5034464;28;20103;-68
2024/03/28 01:55:14;;;;;;;1999.90;999.90;;;8.40;99.90;;;;;;5035458;28;20057;-68
2024/03/28 01:57:40;;;;;;;1999.90;999.90;;;8.50;99.90;;;;;;5034473;28;20026;-67
2024/03/28 02:00:08;;;;;;;1999.90;999.90;;;8.50;99.90;;;;;;5035403;28;20027;-67
2024/03/28 02:02:35;;;;;;;1999.90;999.90;;;8.60;99.90;;;;;;5035177;28;20025;-67
2024/03/28 02:05:00;;;;;;;1999.90;999.90;;;8.70;99.90;;;;;;5035119;28;20026;-67
2024/03/28 02:07:26;;;;;;;1999.90;999.90;;;8.70;99.90;;;;;;5034949;28;20104;-67
2024/03/28 02:09:51;;;;;;;1999.90;999.90;;;8.80;99.90;;;;;;5034972;28;20026;-67
2024/03/28 02:12:17;;;;;;;1999.90;999.90;;;8.70;99.90;;;;;;5035137;28;20045;-67
2024/03/28 02:14:43;;;;;;;1999.90;999.90;;;8.90;99.90;;;;;;5034644;28;20034;-67
2024/03/28 02:17:09;;;;;;;1999.90;999.90;;;7.60;99.90;;;;;;5035280;28;20109;-67
2024/03/28 02:19:35;;;;;;;1999.90;999.90;;;7.40;99.90;;;;;;5034262;28;20056;-67
2024/03/28 02:22:01;;;;;;;1999.90;999.90;;;7.60;99.90;;;;;;5034344;28;20544;-74
2024/03/28 02:24:29;;;;;;;1999.90;999.90;;;7.60;99.90;;;;;;5034575;28;20063;-67
2024/03/28 02:26:55;;;;;;;1999.90;999.90;;;7.70;99.90;;;;;;5034727;28;20026;-67
2024/03/28 02:29:20;;;;;;;1999.90;999.90;;;7.90;99.90;;;;;;5034352;28;20025;-67
2024/03/28 02:31:46;;;;;;;1999.90;999.90;;;8.20;99.90;;;;;;5034918;28;20082;-67
2024/03/28 02:34:12;;;;;;;1999.90;999.90;;;8.20;99.90;;;;;;5034460;28;20399;-73
2024/03/28 02:36:37;;;;;;;1999.90;999.90;;;8.20;99.90;;;;;;5034598;28;20030;-73
2024/03/28 02:39:03;;;;;;;1999.90;999.90;;;8.20;99.90;;;;;;5033434;28;20392;-68
2024/03/28 02:41:29;;;;;;;1999.90;999.90;;;8.30;99.90;;;;;;5034255;28;20091;-67
2024/03/28 02:43:54;;;;;;;1999.90;999.90;;;8.30;99.90;;;;;;5034423;28;20048;-67
2024/03/28 02:46:20;;;;;;;1999.90;999.90;;;8.30;99.90;;;;;;5033978;28;20396;-67
2024/03/28 02:48:45;;;;;;;1999.90;999.90;;;8.40;99.90;;;;;;5034318;28;20029;-73
2024/03/28 02:51:11;;;;;;;1999.90;999.90;;;8.40;99.90;;;;;;5034397;28;20025;-67
2024/03/28 02:53:37;;;;;;;1999.90;999.90;;;8.50;99.90;;;;;;5034041;28;20390;-67
2024/03/28 02:56:02;;;;;;;1999.90;999.90;;;8.50;99.90;;;;;;5034160;28;20041;-67
2024/03/28 02:58:28;;;;;;;1999.90;999.90;;;8.60;99.90;;;;;;5033902;28;20109;-67
2024/03/28 03:00:53;;;;;;;1999.90;999.90;;;8.80;99.90;;;;;;5034415;28;20085;-67
2024/03/28 03:03:19;;;;;;;1999.90;999.90;;;9.00;99.90;;;;;;5034031;28;20032;-73
2024/03/28 03:05:48;;;;;;;1999.90;999.90;;;9.10;99.90;;;;;;5033902;28;20381;-67
2024/03/28 03:08:14;;;;;;;1999.90;999.90;;;9.10;99.90;;;;;;5033757;28;20025;-68
2024/03/28 03:10:40;;;;;;;1999.90;999.90;;;9.30;99.90;;;;;;5032675;28;20136;-67
2024/03/28 03:13:05;;;;;;;1999.90;999.90;;;9.30;99.90;;;;;;5033789;28;20040;-68
2024/03/28 03:15:31;;;;;;;1999.90;999.90;;;9.30;99.90;;;;;;5033706;28;20026;-73
2024/03/28 03:17:56;;;;;;;1999.90;999.90;;;9.40;99.90;;;;;;5033610;28;20041;-72
2024/03/28 03:20:24;;;;;;;1999.90;999.90;;;9.50;99.90;;;;;;5033425;28;20481;-68
2024/03/28 03:22:52;;;;;;;1999.90;999.90;;;9.40;99.90;;;;;;5021736;28;20147;-67
2024/03/28 03:25:25;;;;;;;1999.90;999.90;;;9.30;99.90;;;;;;5033270;28;20033;-67
2024/03/28 03:36:05;;;;;;;1999.90;999.90;;;9.00;99.90;;;;;;5013630;28;20037;-74
2024/03/28 03:38:30;;;;;;;1999.90;999.90;;;8.60;99.90;;;;;;5027262;28;20033;-67
2024/03/28 03:40:58;;;;;;;1999.90;999.90;;;8.40;99.90;;;;;;5033141;28;20420;-67
2024/03/28 03:43:24;;;;;;;1999.90;999.90;;;8.50;99.90;;;;;;5033332;28;20017;-67
2024/03/28 03:45:50;;;;;;;1999.90;999.90;;;8.60;99.90;;;;;;5033050;28;20029;-67
2024/03/28 03:48:16;;;;;;;1999.90;999.90;;;8.80;99.90;;;;;;5033178;28;20025;-68
2024/03/28 03:50:41;;;;;;;1999.90;999.90;;;8.80;99.90;;;;;;5033288;28;20479;-67
2024/03/28 03:53:07;;;;;;;1999.90;999.90;;;8.80;99.90;;;;;;5033344;28;20027;-67
2024/03/28 03:55:33;;;;;;;1999.90;999.90;;;8.80;99.90;;;;;;5033153;28;20115;-73
2024/03/28 03:57:58;;;;;;;1999.90;999.90;;;8.70;99.90;;;;;;5032179;28;20057;-67
2024/03/28 04:00:24;;;;;;;1999.90;999.90;;;8.60;99.90;;;;;;5032878;28;20032;-67
2024/03/28 04:02:49;;;;;;;1999.90;999.90;;;8.70;99.90;;;;;;5033074;28;20025;-73
2024/03/28 04:05:15;;;;;;;1999.90;999.90;;;8.80;99.90;;;;;;5033076;28;20060;-67
2024/03/28 04:07:41;;;;;;;1999.90;999.90;;;8.80;99.90;;;;;;5032904;28;20388;-74
2024/03/28 04:10:06;;;;;;;1999.90;999.90;;;8.90;99.90;;;;;;5032687;28;20032;-74
2024/03/28 04:12:32;;;;;;;1999.90;999.90;;;8.90;99.90;;;;;;5032540;28;20032;-67
2024/03/28 04:14:57;;;;;;;1999.90;999.90;;;8.90;99.90;;;;;;5032676;28;20033;-67
2024/03/28 04:17:23;;;;;;;1999.90;999.90;;;8.70;99.90;;;;;;5032866;28;20071;-68
2024/03/28 04:19:49;;;;;;;1999.90;999.90;;;8.60;99.90;;;;;;5032423;28;20037;-74
2024/03/28 04:22:16;;;;;;;1999.90;999.90;;;8.50;99.90;;;;;;5032060;28;20030;-67
2024/03/28 04:24:41;;;;;;;1999.90;999.90;;;8.50;99.90;;;;;;5032351;28;20021;-67
2024/03/28 04:27:07;;;;;;;1999.90;999.90;;;8.60;99.90;;;;;;5032915;28;20385;-67
2024/03/28 04:29:32;;;;;;;1999.90;999.90;;;8.50;99.90;;;;;;5032524;28;20052;-67
2024/03/28 04:31:58;;;;;;;1999.90;999.90;;;8.50;99.90;;;;;;5031417;28;20025;-73
2024/03/28 04:34:24;;;;;;;1999.90;999.90;;;8.50;99.90;;;;;;5031959;28;20080;-73
2024/03/28 04:36:49;;;;;;;1999.90;999.90;;;8.50;99.90;;;;;;5032073;28;20434;-74
2024/03/28 04:39:15;;;;;;;1999.90;999.90;;;8.60;99.90;;;;;;5031909;28;20480;-67
2024/03/28 04:41:41;;;;;;;1999.90;999.90;;;8.60;99.90;;;;;;5032854;28;20029;-74
2024/03/28 04:44:06;;;;;;;1999.90;999.90;;;8.70;99.90;;;;;;5032678;28;20068;-73
2024/03/28 04:46:32;;;;;;;1999.90;999.90;;;8.60;99.90;;;;;;5032214;28;20036;-73
2024/03/28 04:48:58;;;;;;;1999.90;999.90;;;8.60;99.90;;;;;;5032340;28;20022;-68
2024/03/28 04:51:24;;;;;;;1999.90;999.90;;;8.60;99.90;;;;;;5032508;28;20034;-67
2024/03/28 04:53:49;;;;;;;1999.90;999.90;;;8.50;99.90;;;;;;5032553;28;20022;-67
2024/03/28 04:56:16;;;;;;;1999.90;999.90;;;8.50;99.90;;;;;;5032733;28;20025;-67
2024/03/28 04:58:42;;;;;;;1999.90;999.90;;;8.40;99.90;;;;;;5032113;28;20034;-68
2024/03/28 05:01:07;;;;;;;1999.90;999.90;;;8.20;99.90;;;;;;5032473;28;20053;-74
2024/03/28 05:03:33;;;;;;;1999.90;999.90;;;8.10;99.90;;;;;;5032360;28;20033;-67
2024/03/28 05:05:58;;;;;;;1999.90;999.90;;;8.00;99.90;;;;;;5032300;28;20222;-67
2024/03/28 05:08:25;;;;;;;1999.90;999.90;;;8.00;99.90;;;;;;5032404;28;20021;-68
2024/03/28 05:10:50;;;;;;;1999.90;999.90;;;8.10;99.90;;;;;;5032423;28;20036;-67
2024/03/28 05:13:16;;;;;;;1999.90;999.90;;;8.10;99.90;;;;;;5031458;28;20033;-67
2024/03/28 05:15:41;;;;;;;1999.90;999.90;;;7.90;99.90;;;;;;5031931;28;20041;-67
2024/03/28 05:18:07;;;;;;;1999.90;999.90;;;7.20;99.90;;;;;;5032014;28;20045;-67
2024/03/28 05:20:33;;;;;;;1999.90;999.90;;;6.80;99.90;;;;;;5031964;28;20382;-67
2024/03/28 05:22:58;;;;;;;1999.90;999.90;;;6.70;99.90;;;;;;5032274;28;20026;-67
2024/03/28 05:25:24;;;;;;;1999.90;999.90;;;6.70;99.90;;;;;;5031835;28;20040;-67
2024/03/28 05:27:50;;;;;;;1999.90;999.90;;;6.90;99.90;;;;;;5032392;28;20029;-73
2024/03/28 05:30:15;;;;;;;1999.90;999.90;;;6.90;99.90;;;;;;5032173;28;20037;-67
2024/03/28 05:32:41;;;;;;;1999.90;999.90;;;7.00;99.90;;;;;;5032485;28;20036;-67
2024/03/28 05:35:07;;;;;;;1999.90;999.90;;;7.30;99.90;;;;;;5035837;28;20507;-67
2024/03/28 05:37:33;;;;;;;1999.90;999.90;;;7.70;99.90;;;;;;5034480;28;20033;-67
2024/03/28 05:39:58;;;;;;;1999.90;999.90;;;7.80;99.90;;;;;;5035473;28;20441;-74
2024/03/28 05:42:24;;;;;;;1999.90;999.90;;;8.10;99.90;;;;;;5035622;28;20021;-73
2024/03/28 05:44:49;;;;;;;1999.90;999.90;;;8.40;99.90;;;;;;5035577;28;20033;-67
2024/03/28 05:47:15;;;;;;;1999.90;999.90;;;8.60;99.90;;;;;;5035420;28;20505;-67
2024/03/28 05:49:41;;;;;;;1999.90;999.90;;;7.40;99.90;;;;;;5034532;28;20103;-67
2024/03/28 05:52:06;;;;;;;1999.90;999.90;;;6.30;99.90;;;;;;5035037;28;20017;-72
2024/03/28 05:54:32;;;;;;;1999.90;999.90;;;6.30;99.90;;;;;;5035000;28;20481;-67
2024/03/28 05:56:58;;;;;;;1999.90;999.90;;;6.30;99.90;;;;;;5035409;28;20053;-67
2024/03/28 05:59:23;;;;;;;1999.90;999.90;;;6.30;99.90;;;;;;5035035;28;20021;-68
2024/03/28 06:01:49;;;;;;;1999.90;999.90;;;6.80;99.90;;;;;;5034979;28;20021;-72
2024/03/28 06:04:15;;;;;;;1999.90;999.90;;;7.00;99.90;;;;;;5035023;28;20026;-72
2024/03/28 06:06:40;;;;;;;1999.90;999.90;;;6.60;99.90;;;;;;5052001;28;20579;-72
2024/03/28 06:09:06;;;;;;;1999.90;999.90;;;6.50;99.90;;;;;;5054946;28;20032;-67
2024/03/28 06:11:32;;;;;;;1999.90;999.90;;;6.70;99.90;;;;;;5054504;28;20104;-67
2024/03/28 06:14:08;;;;;;;1999.90;999.90;;;7.00;99.90;;;;;;5054744;28;20105;-69
2024/03/28 06:16:33;;;;;;;1999.90;999.90;;;7.00;99.90;;;;;;5054249;28;20028;-73
2024/03/28 06:18:59;;;;;;;1999.90;999.90;;;7.00;99.90;;;;;;5041882;28;20466;-73
2024/03/28 06:21:24;;;;;;;1999.90;999.90;;;7.10;99.90;;;;;;5034507;28;20041;-67
2024/03/28 06:23:50;;;;;;;1999.90;999.90;;;7.20;99.90;;;;;;5034362;28;20056;-67
2024/03/28 06:26:16;;;;;;;1999.90;999.90;;;7.20;99.90;;;;;;5033699;28;20037;-73
2024/03/28 06:28:41;;;;;;;1999.90;999.90;;;7.00;99.90;;;;;;5035304;28;20104;-73
2024/03/28 06:31:07;;;;;;;1999.90;999.90;;;7.00;99.90;;;;;;5042720;28;20506;-67
2024/03/28 06:33:32;;;;;;;1999.90;999.90;;;6.90;99.90;;;;;;5032769;28;20507;-74
2024/03/28 06:35:58;;;;;;;1999.90;999.90;;;6.90;99.90;;;;;;5031386;28;20033;-67
2024/03/28 06:38:24;;;;;;;1999.90;999.90;;;6.90;99.90;;;;;;5024877;28;20147;-67
2024/03/28 06:40:58;;;;;;;1999.90;999.90;;;6.60;99.90;;;;;;5036431;28;20037;-67
2024/03/28 06:43:24;;;;;;;1999.90;999.90;;;6.30;99.90;;;;;;5033398;28;20037;-72
2024/03/28 06:45:50;;;;;;;1999.90;999.90;;;6.40;99.90;;;;;;5032749;28;20037;-67
2024/03/28 06:48:15;;;;;;;1999.90;999.90;;;6.40;99.90;;;;;;5032092;28;20504;-67
2024/03/28 06:50:41;;;;;;;1999.90;999.90;;;6.60;99.90;;;;;;5029709;28;20030;-67
2024/03/28 06:53:06;;;;;;;1999.90;999.90;;;6.80;99.90;;;;;;5029954;28;20053;-68
2024/03/28 06:55:32;;;;;;;1999.90;999.90;;;6.90;99.90;;;;;;5035385;28;20574;-67
2024/03/28 06:57:58;;;;;;;1999.90;999.90;;;7.10;99.90;;;;;;5047936;28;20028;-67
2024/03/28 07:00:24;;;;;;;1999.90;999.90;;;7.30;99.90;;;;;;5052816;28;20380;-74
2024/03/28 07:02:49;;;;;;;1999.90;999.90;;;7.50;99.90;;;;;;5044092;28;20029;-68
2024/03/28 07:05:15;;;;;;;1999.90;999.90;;;8.20;99.90;;;;;;5032274;28;20087;-73
2024/03/28 07:07:40;;;;;;;1999.90;999.90;;;8.70;99.90;;;;;;5031272;28;20693;-68
2024/03/28 07:10:07;;;;;;;1999.90;999.90;;;8.90;99.90;;;;;;5031574;28;20068;-67
2024/03/28 07:12:37;;;;;;;1999.90;999.90;;;9.20;99.90;;;;;;5040092;28;20029;-67
2024/03/28 07:15:03;;;;;;;1999.90;999.90;;;9.20;99.90;;;;;;5035668;28;20033;-68
2024/03/28 07:17:31;;;;;;;1999.90;999.90;;;9.30;99.90;;;;;;5027836;28;20099;-68
2024/03/28 07:19:57;;;;;;;1999.90;999.90;;;9.50;99.90;;;;;;5033158;28;20528;-67
2024/03/28 07:22:23;;;;;;;1999.90;999.90;;;9.60;99.90;;;;;;5033258;28;20030;-73
2024/03/28 07:24:49;;;;;;;1999.90;999.90;;;9.50;99.90;;;;;;5032795;28;20048;-74
2024/03/28 07:27:14;;;;;;;1999.90;999.90;;;8.90;99.90;;;;;;5032291;28;20104;-68
2024/03/28 07:29:40;;;;;;;1999.90;999.90;;;8.70;99.90;;;;;;5040172;28;20411;-68
2024/03/28 07:32:06;;;;;;;1999.90;999.90;;;8.60;99.90;;;;;;5042471;28;20514;-68
2024/03/28 07:34:32;;;;;;;1999.90;999.90;;;8.60;99.90;;;;;;5032028;28;20401;-74
2024/03/28 07:36:57;;;;;;;1999.90;999.90;;;8.60;99.90;;;;;;5031581;28;20029;-69
2024/03/28 07:39:23;;;;;;;1999.90;999.90;;;8.80;99.90;;;;;;5024511;28;20408;-67
2024/03/28 07:41:48;;;;;;;1999.90;999.90;;;9.00;99.90;;;;;;5031625;28;20034;-67
2024/03/28 07:44:15;;;;;;;1999.90;999.90;;;9.00;99.90;;;;;;5031333;28;20029;-67
2024/03/28 07:46:40;;;;;;;1999.90;999.90;;;9.20;99.90;;;;;;5030653;28;20034;-67
2024/03/28 07:49:06;;;;;;;1999.90;999.90;;;8.30;99.90;;;;;;5029777;28;20052;-74
2024/03/28 07:51:31;;;;;;;1999.90;999.90;;;7.80;99.90;;;;;;5028138;28;20025;-73
2024/03/28 07:53:57;;;;;;;1999.90;999.90;;;7.80;99.90;;;;;;5030220;28;20017;-73
2024/03/28 07:56:23;;;;;;;1999.90;999.90;;;7.90;99.90;;;;;;5024379;28;20040;-69
2024/03/28 07:58:49;;;;;;;1999.90;999.90;;;8.20;99.90;;;;;;5029873;28;20035;-72
2024/03/28 08:01:15;;;;;;;1999.90;999.90;;;8.50;99.90;;;;;;5036289;28;20052;-68
2024/03/28 08:03:40;;;;;;;1999.90;999.90;;;8.70;99.90;;;;;;5029403;28;20323;-73
2024/03/28 08:06:06;;;;;;;1999.90;999.90;;;8.90;99.90;;;;;;5030359;28;20405;-68
2024/03/28 08:08:32;;;;;;;1999.90;999.90;;;8.90;99.90;;;;;;5027759;28;20036;-68
2024/03/28 08:10:58;;;;;;;1999.90;999.90;;;8.40;99.90;;;;;;5033447;28;20630;-67
2024/03/28 08:13:24;;;;;;;1999.90;999.90;;;8.10;99.90;;;;;;5025778;28;20025;-73
2024/03/28 08:15:49;;;;;;;1999.90;999.90;;;8.00;99.90;;;;;;5029552;28;20143;-74
2024/03/28 08:18:16;;;;;;;1999.90;999.90;;;8.20;99.90;;;;;;5030361;28;20041;-68
2024/03/28 08:20:43;;;;;;;1999.90;999.90;;;8.30;99.90;;;;;;5029010;28;20498;-68
2024/03/28 08:23:09;;;;;;;1999.90;999.90;;;8.60;99.90;;;;;;5029588;28;20045;-74
2024/03/28 08:25:34;;;;;;;1999.90;999.90;;;8.80;99.90;;;;;;5028502;28;20033;-70
2024/03/28 08:28:00;;;;;;;1999.90;999.90;;;9.10;99.90;;;;;;5030045;28;20025;-69
2024/03/28 08:30:26;;;;;;;1999.90;999.90;;;9.30;99.90;;;;;;5038412;28;20029;-74
2024/03/28 08:32:55;;;;;;;1999.90;999.90;;;9.60;99.90;;;;;;5029641;28;20022;-74
2024/03/28 08:35:21;;;;;;;1999.90;999.90;;;9.80;99.90;;;;;;5028864;28;20029;-69
2024/03/28 08:37:46;;;;;;;1999.90;999.90;;;10.10;99.90;;;;;;5028714;28;20179;-69
2024/03/28 08:40:12;;;;;;;1999.90;999.90;;;10.60;99.90;;;;;;5028297;28;20040;-74
2024/03/28 08:42:38;;;;;;;1999.90;999.90;;;10.90;99.90;;;;;;5029147;28;20021;-73
2024/03/28 08:45:08;;;;;;;1999.90;999.90;;;11.70;99.90;;;;;;5030216;28;20515;-69
2024/03/28 08:47:35;;;;;;;1999.90;999.90;;;12.70;99.90;;;;;;5029853;28;20029;-70
2024/03/28 08:50:03;;;;;;;1999.90;999.90;;;13.20;99.90;;;;;;5030152;28;20562;-69
2024/03/28 08:52:29;;;;;;;1999.90;999.90;;;15.10;99.90;;;;;;5031154;28;20072;-74
2024/03/28 08:54:56;;;;;;;1999.90;999.90;;;16.50;99.90;;;;;;5030567;28;20037;-74
2024/03/28 08:57:22;;;;;;;1999.90;999.90;;;16.50;99.90;;;;;;5030024;28;20374;-73
2024/03/28 08:59:47;;;;;;;1999.90;999.90;;;17.80;99.90;;;;;;5032062;28;20026;-69
2024/03/28 09:02:14;;;;;;;1999.90;999.90;;;17.60;99.90;;;;;;5030189;28;20033;-74
2024/03/28 09:04:40;;;;;;;1999.90;999.90;;;15.60;99.90;;;;;;5029749;28;20033;-70
2024/03/28 09:07:06;;;;;;;1999.90;999.90;;;13.70;99.90;;;;;;5029656;28;20037;-74
2024/03/28 09:09:32;;;;;;;1999.90;999.90;;;10.70;99.90;;;;;;5032650;28;20040;-66
2024/03/28 09:11:58;;;;;;;1999.90;999.90;;;8.40;99.90;;;;;;5033206;28;20631;-67
2024/03/28 09:14:24;;;;;;;1999.90;999.90;;;7.90;99.90;;;;;;5033625;28;20485;-72
2024/03/28 09:16:49;;;;;;;1999.90;999.90;;;8.00;99.90;;;;;;5032242;28;20029;-73
2024/03/28 09:19:15;;;;;;;1999.90;999.90;;;8.20;99.90;;;;;;5033569;28;20124;-73
2024/03/28 09:21:40;;;;;;;;;;;8.20;99.90;;;;;;5033159;28;20029;-72
2024/03/28 09:24:09;;;;;;;;;;;7.70;99.90;;;;;;5033608;28;19913;-67
2024/03/28 09:26:35;;;;;;;1999.90;999.90;;;6.90;99.90;;;;;;5033587;28;19921;-72
2024/03/28 09:29:00;;;;;;;1999.90;999.90;;;6.90;99.90;;;;;;5032285;28;19912;-68
2024/03/28 09:31:29;;;;;;;1999.90;999.90;;;7.30;99.90;;;;;;5050807;28;20104;-67
2024/03/28 09:33:54;;;;;;;1999.90;999.90;;;7.80;99.90;;;;;;5052658;28;20033;-72
2024/03/28 09:36:20;;;;;;;1999.90;999.90;;;8.40;99.90;;;;;;5033920;28;20108;-73
2024/03/28 09:38:52;;;;;;;1999.90;999.90;;;8.70;99.90;;;;;;5031061;28;20072;-69
2024/03/28 09:41:28;;;;;;;1999.90;999.90;;;8.70;99.90;;;;;;5031110;28;20389;-68
2024/03/28 09:44:02;;;;;;;1999.90;999.90;;;7.80;99.90;;;;;;5031273;28;20397;-67
2024/03/28 09:46:29;;;;;;;1999.90;999.90;;;7.70;99.90;;;;;;5031201;28;20034;-73
2024/03/28 09:49:07;;;;;;;1999.90;999.90;;;8.00;99.90;;;;;;5030881;28;20025;-73
2024/03/28 09:51:34;;;;;;;1999.90;999.90;;;8.20;99.90;;;;;;5030932;28;20022;-68
2024/03/28 09:54:05;;;;;;;1999.90;999.90;;;8.40;99.90;;;;;;5032854;28;20156;-68
2024/03/28 09:56:31;;;;;;;1999.90;999.90;;;8.70;99.90;;;;;;5029946;28;20040;-69
2024/03/28 09:58:57;;;;;;;1999.90;999.90;;;8.90;99.90;;;;;;5028918;28;20029;-68
2024/03/28 10:01:23;;;;;;;1999.90;999.90;;;9.10;99.90;;;;;;5029020;28;20032;-68
2024/03/28 10:04:13;;;;;;;1999.90;999.90;;;9.00;99.90;;;;;;5028343;28;20034;-67
2024/03/28 10:06:48;;;;;;;1999.90;999.90;;;8.60;99.90;;;;;;5030590;28;20041;-69
2024/03/28 10:09:17;;;;;;;1999.90;999.90;;;8.00;99.90;;;;;;5029362;28;20049;-68
2024/03/28 10:11:43;;;;;;;1999.90;999.90;;;7.90;99.90;;;;;;5030854;28;20430;-72
2024/03/28 10:14:18;;;;;;;1999.90;999.90;;;7.90;99.90;;;;;;5032464;28;20037;-73
2024/03/28 10:16:48;;;;;;;1999.90;999.90;;;8.00;99.90;;;;;;5032044;28;20041;-68
2024/03/28 10:19:27;;;;;;;1999.90;999.90;;;8.00;99.90;;;;;;5030911;28;20069;-67
2024/03/28 10:22:06;;;;;;;1999.90;999.90;;;7.90;99.90;;;;;;5031545;28;20117;-67
2024/03/28 10:24:33;;;;;;;1999.90;999.90;;;8.10;99.90;;;;;;5031055;28;20033;-74
2024/03/28 10:26:59;;;;;;;1999.90;999.90;;;8.20;99.90;;;;;;5023552;28;20037;-72
2024/03/28 10:29:29;;;;;;;1999.90;999.90;;;8.20;99.90;;;;;;5029474;28;20029;-68
2024/03/28 10:32:04;;;;;;;1999.90;999.90;;;8.10;99.90;;;;;;5032334;28;20040;-73
2024/03/28 10:34:30;;;;;;;1999.90;999.90;;;8.10;99.90;;;;;;5030162;28;20053;-68
2024/03/28 10:37:03;;;;;;;1999.90;999.90;;;8.20;99.90;;;;;;5033702;28;20476;-68
2024/03/28 10:39:29;;;;;;;1999.90;999.90;;;8.50;99.90;;;;;;5043112;28;20037;-68
2024/03/28 10:41:55;;;;;;;1999.90;999.90;;;8.90;99.90;;;;;;5037659;28;20041;-76
2024/03/28 10:44:21;;;;;;;1999.90;999.90;;;9.40;99.90;;;;;;5032388;28;20039;-76
2024/03/28 10:46:48;;;;;;;1999.90;999.90;;;10.00;99.90;;;;;;5030421;28;20048;-68
2024/03/28 10:49:16;;;;;;;1999.90;999.90;;;10.80;99.90;;;;;;5039016;28;20053;-75
2024/03/28 10:51:44;;;;;;;1999.90;999.90;;;11.40;99.90;;;;;;5036545;28;20448;-75
2024/03/28 10:54:35;;;;;;;1999.90;999.90;;;11.90;99.90;;;;;;5026859;28;20112;-69
2024/03/28 10:57:04;;;;;;;1999.90;999.90;;;11.90;99.90;;;;;;5032855;28;20033;-68
2024/03/28 10:59:32;;;;;;;1999.90;999.90;;;11.70;99.90;;;;;;5033699;28;20035;-68
2024/03/28 11:01:59;;;;;;;1999.90;999.90;;;11.60;99.90;;;;;;5031139;28;20510;-71
2024/03/28 11:04:25;;;;;;;1999.90;999.90;;;11.60;99.90;;;;;;5033920;28;20375;-75
2024/03/28 11:06:54;;;;;;;1999.90;999.90;;;12.10;99.90;;;;;;5039459;28;20391;-73
2024/03/28 11:09:20;;;;;;;1999.90;999.90;;;12.90;99.90;;;;;;5038740;28;20087;-68
2024/03/28 11:11:47;;;;;;;1999.90;999.90;;;13.00;99.90;;;;;;5045087;28;20024;-69
2024/03/28 11:14:13;;;;;;;1999.90;999.90;;;12.90;99.90;;;;;;5034019;28;20454;-68
2024/03/28 11:16:39;;;;;;;1999.90;999.90;;;12.90;99.90;;;;;;5031198;28;20480;-68
2024/03/28 11:19:05;;;;;;;1999.90;999.90;;;13.20;99.90;;;;;;5039581;28;20540;-69
2024/03/28 11:21:34;;;;;;;1999.90;999.90;;;13.30;99.90;;;;;;5036978;28;20037;-68
2024/03/28 11:23:59;;;;;;;1999.90;999.90;;;13.70;99.90;;;;;;5044151;28;20041;-68
2024/03/28 11:26:27;;;;;;;1999.90;999.90;;;13.70;99.90;;;;;;5038991;28;20427;-68
2024/03/28 11:29:05;;;;;;;1999.90;999.90;;;13.40;99.90;;;;;;5042994;28;20101;-74
2024/03/28 11:31:32;;;;;;;1999.90;999.90;;;13.50;99.90;;;;;;5025268;28;20502;-74
2024/03/28 11:34:04;;;;;;;1999.90;999.90;;;13.60;99.90;;;;;;5023160;28;20036;-73
2024/03/28 11:36:32;;;;;;;1999.90;999.90;;;12.90;99.90;;;;;;5029720;28;20038;-68
2024/03/28 11:38:58;;;;;;;1999.90;999.90;;;12.60;99.90;;;;;;5042583;28;20167;-68
2024/03/28 11:41:25;;;;;;;1999.90;999.90;;;12.70;99.90;;;;;;5043381;28;20488;-75
2024/03/28 11:43:52;;;;;;;1999.90;999.90;;;12.60;99.90;;;;;;5047551;28;20033;-74
2024/03/28 11:46:26;;;;;;;1999.90;999.90;;;12.60;99.90;;;;;;5026892;28;20026;-74
2024/03/28 11:48:56;;;;;;;1999.90;999.90;;;12.90;99.90;;;;;;5025284;28;20029;-74
2024/03/28 11:51:22;;;;;;;1999.90;999.90;;;13.20;99.90;;;;;;5045124;28;20029;-74
2024/03/28 11:53:48;;;;;;;1999.90;999.90;;;13.30;99.90;;;;;;5032441;28;20025;-68
2024/03/28 11:56:21;;;;;;;1999.90;999.90;;;13.30;99.90;;;;;;5028481;28;20033;-69
2024/03/28 11:58:46;;;;;;;1999.90;999.90;;;13.50;99.90;;;;;;5032971;28;20391;-75
2024/03/28 12:01:12;;;;;;;1999.90;999.90;;;13.60;99.90;;;;;;5041663;28;20056;-69
2024/03/28 12:03:38;;;;;;;1999.90;999.90;;;13.60;99.90;;;;;;5029821;28;20476;-68
2024/03/28 12:06:03;;;;;;;1999.90;999.90;;;13.80;99.90;;;;;;5029056;28;20781;-68
2024/03/28 12:08:30;;;;;;;1999.90;999.90;;;13.80;99.90;;;;;;5032853;28;20039;-75
2024/03/28 12:11:01;;;;;;;1999.90;999.90;;;14.00;99.90;;;;;;5042060;28;20033;-74
2024/03/28 12:13:26;;;;;;;1999.90;999.90;;;14.10;99.90;;;;;;5045100;28;20022;-69